Terminal Aerodrome Forecast
Issued by NWS Charleston, WV

Current Version | Previous Version | Graphics & Text | Print | Product List | Glossary On
Versions: 1 2 3 4 5 6 7 8 9 10 11 12 13 14 15 16 17 18 19
000
FTUS41 KRLX 181900 AAA
TAFPKB
TAF AMD
KPKB 181929Z 1819/1918 27004KT P6SM OVC025
     FM182200 27004KT P6SM SCT025 BKN060
      TEMPO 1823/1902 6SM -SHSN BKN025
     FM190600 28004KT P6SM -SHSN BKN022=

USA.gov is the U.S. government's official web portal to all federal, state and local government web resources and services.